Weimar, TX (78962)

10:15 AM CDT on March 26, 2017 (GMT -0500)
TRANQUILITY OAKS | | Change Station

Elev 341 ft 29.71 °N, 96.71 °W | Updated 7 minutes ago

Overcast
Overcast
73.6 °F
Feels Like 73 °F
N
18.0
Wind Variable Wind from SSE
Gusts 19.0 mph

Today
High -- | Low -- °F
--% Chance of Precip.
Yesterday
High -- | Low -- °F
Precip. -- in
Pressure 29.89 in
Visibility 10.0 miles
Clouds Overcast 1100 ft
Heat Index 73 °F
Dew Point 69 °F
Humidity 84%
Rainfall 0.00 in
Snow Depth Not available.
7:23 AM 7:42 PM
Waning Crescent, 3% visible
METAR K3T5 261455Z AUTO 17009G14KT 10SM OVC011 23/20 A2989 RMK AO2 T02250202
Pressure 29.89 in
Visibility 10.0 miles
Clouds Overcast 1100 ft
Heat Index 73 °F
Dew Point 69 °F
Humidity 84%
Rainfall 0.00 in
Snow Depth Not available.
7:23 AM 7:42 PM
Waning Crescent, 3% visible
METAR K3T5 261455Z AUTO 17009G14KT 10SM OVC011 23/20 A2989 RMK AO2 T02250202

Get Severe Weather Alerts

Thanks for signing up!

Be on the lookout for a verification email in your inbox.

You'll start receiving the daily forecast at 8 AM.

×

10-Day Weather Forecast

Almanac

Astronomy

Mar. 26, 2017 Rise Set
Actual Time
Civil Twilight
Nautical Twilight
Astronomical Twilight
Moon
Length of Visible Light
Length of Day
Tomorrow will be .
, % of the Moon is Illuminated

Today's Extremes

State Highs State Lows

Community

WunderPhotos

Upload Photos

1,962,540 photos uploaded!

WunderBlog® & News

Nearby

Air Quality

  Air Quality AQ Index Pollutant
Not available.

Snow Depth

Station Depth Elevation

Earthquake Activity

City Distance Mag. Time & Date
Minimum magnitude displayed is 2.5.

Earthquake Activity

City Distance Mag. Time & Date
Minimum magnitude displayed is 2.5.

Coastal Water Temperatures

Place Temperature

Stations

Nearby Weather Stations

Station Location Temp. Windchill Dew Point Humidity Wind Precip. Elev Updated Type
                   

Watches & Warnings

There are currently no watches in effect.